sensor_id;sensor_type;location;lat;lon;timestamp;P1;durP1;ratioP1;P2;durP2;ratioP2
65658;SDS011;60181;53.258;6.932;2022-07-22T00:02:15;6.50;;;3.50;;
65658;SDS011;60181;53.258;6.932;2022-07-22T00:06:43;6.50;;;3.50;;
65658;SDS011;60181;53.258;6.932;2022-07-22T00:11:11;7.40;;;3.40;;
65658;SDS011;60181;53.258;6.932;2022-07-22T00:15:39;7.40;;;3.40;;
65658;SDS011;60181;53.258;6.932;2022-07-22T00:20:08;8.10;;;3.20;;
65658;SDS011;60181;53.258;6.932;2022-07-22T00:24:35;8.10;;;3.20;;
65658;SDS011;60181;53.258;6.932;2022-07-22T00:29:03;7.20;;;3.10;;
65658;SDS011;60181;53.258;6.932;2022-07-22T00:33:31;7.20;;;3.10;;
65658;SDS011;60181;53.258;6.932;2022-07-22T00:37:59;7.20;;;3.10;;
65658;SDS011;60181;53.258;6.932;2022-07-22T00:42:27;6.50;;;3.20;;
65658;SDS011;60181;53.258;6.932;2022-07-22T00:46:55;6.50;;;3.20;;
65658;SDS011;60181;53.258;6.932;2022-07-22T00:51:24;8.10;;;3.40;;
65658;SDS011;60181;53.258;6.932;2022-07-22T00:55:51;8.10;;;3.40;;
65658;SDS011;60181;53.258;6.932;2022-07-22T01:00:20;7.90;;;3.20;;
65658;SDS011;60181;53.258;6.932;2022-07-22T01:04:47;7.90;;;3.20;;
65658;SDS011;60181;53.258;6.932;2022-07-22T01:09:15;6.80;;;3.30;;
65658;SDS011;60181;53.258;6.932;2022-07-22T01:13:44;6.80;;;3.30;;
65658;SDS011;60181;53.258;6.932;2022-07-22T01:18:11;6.80;;;3.30;;
65658;SDS011;60181;53.258;6.932;2022-07-22T01:22:39;4.90;;;2.80;;
65658;SDS011;60181;53.258;6.932;2022-07-22T01:27:07;4.90;;;2.80;;
65658;SDS011;60181;53.258;6.932;2022-07-22T01:31:35;6.90;;;2.90;;
65658;SDS011;60181;53.258;6.932;2022-07-22T01:36:04;6.90;;;2.90;;
65658;SDS011;60181;53.258;6.932;2022-07-22T01:40:31;8.70;;;3.00;;
65658;SDS011;60181;53.258;6.932;2022-07-22T01:44:59;8.70;;;3.00;;
65658;SDS011;60181;53.258;6.932;2022-07-22T01:49:27;6.80;;;3.10;;
65658;SDS011;60181;53.258;6.932;2022-07-22T01:53:55;6.80;;;3.10;;
65658;SDS011;60181;53.258;6.932;2022-07-22T01:58:23;5.20;;;2.70;;
65658;SDS011;60181;53.258;6.932;2022-07-22T02:02:51;5.20;;;2.70;;
65658;SDS011;60181;53.258;6.932;2022-07-22T02:07:19;5.20;;;2.70;;
65658;SDS011;60181;53.258;6.932;2022-07-22T02:11:47;6.20;;;2.70;;
65658;SDS011;60181;53.258;6.932;2022-07-22T02:16:15;6.20;;;2.70;;
65658;SDS011;60181;53.258;6.932;2022-07-22T02:20:43;6.50;;;2.80;;
65658;SDS011;60181;53.258;6.932;2022-07-22T03:27:48;4.80;;;2.60;;
65658;SDS011;60181;53.258;6.932;2022-07-22T03:32:16;4.30;;;2.50;;
65658;SDS011;60181;53.258;6.932;2022-07-22T03:36:44;4.30;;;2.50;;
65658;SDS011;60181;53.258;6.932;2022-07-22T03:41:12;4.40;;;2.20;;
65658;SDS011;60181;53.258;6.932;2022-07-22T03:45:40;4.40;;;2.20;;
65658;SDS011;60181;53.258;6.932;2022-07-22T03:50:08;7.40;;;2.50;;
65658;SDS011;60181;53.258;6.932;2022-07-22T03:54:36;7.40;;;2.50;;
65658;SDS011;60181;53.258;6.932;2022-07-22T03:59:04;4.30;;;2.30;;
65658;SDS011;60181;53.258;6.932;2022-07-22T04:03:32;4.30;;;2.30;;
65658;SDS011;60181;53.258;6.932;2022-07-22T04:08:00;4.30;;;2.30;;
65658;SDS011;60181;53.258;6.932;2022-07-22T04:12:28;5.20;;;2.10;;
65658;SDS011;60181;53.258;6.932;2022-07-22T04:16:56;5.20;;;2.10;;
65658;SDS011;60181;53.258;6.932;2022-07-22T04:21:24;5.40;;;2.30;;
65658;SDS011;60181;53.258;6.932;2022-07-22T04:25:52;5.40;;;2.30;;
65658;SDS011;60181;53.258;6.932;2022-07-22T04:30:20;4.90;;;2.40;;
65658;SDS011;60181;53.258;6.932;2022-07-22T04:34:48;4.90;;;2.40;;
65658;SDS011;60181;53.258;6.932;2022-07-22T04:39:16;6.50;;;2.10;;
65658;SDS011;60181;53.258;6.932;2022-07-22T04:43:44;6.50;;;2.10;;
65658;SDS011;60181;53.258;6.932;2022-07-22T04:48:12;6.50;;;2.10;;
65658;SDS011;60181;53.258;6.932;2022-07-22T04:52:40;5.80;;;2.30;;
65658;SDS011;60181;53.258;6.932;2022-07-22T04:57:08;5.80;;;2.30;;
65658;SDS011;60181;53.258;6.932;2022-07-22T05:01:36;4.20;;;2.00;;
65658;SDS011;60181;53.258;6.932;2022-07-22T05:06:04;4.20;;;2.00;;
65658;SDS011;60181;53.258;6.932;2022-07-22T05:10:32;4.10;;;2.10;;
65658;SDS011;60181;53.258;6.932;2022-07-22T05:15:00;4.10;;;2.10;;
65658;SDS011;60181;53.258;6.932;2022-07-22T05:19:28;4.70;;;2.00;;
65658;SDS011;60181;53.258;6.932;2022-07-22T05:23:56;4.70;;;2.00;;
65658;SDS011;60181;53.258;6.932;2022-07-22T05:28:24;4.70;;;2.00;;
65658;SDS011;60181;53.258;6.932;2022-07-22T05:32:53;4.20;;;2.00;;
65658;SDS011;60181;53.258;6.932;2022-07-22T05:37:20;4.20;;;2.00;;
65658;SDS011;60181;53.258;6.932;2022-07-22T05:41:48;3.80;;;1.90;;
65658;SDS011;60181;53.258;6.932;2022-07-22T05:46:16;3.80;;;1.90;;
65658;SDS011;60181;53.258;6.932;2022-07-22T05:50:44;4.30;;;1.90;;
65658;SDS011;60181;53.258;6.932;2022-07-22T05:55:12;4.30;;;1.90;;
65658;SDS011;60181;53.258;6.932;2022-07-22T05:59:40;4.50;;;2.10;;
65658;SDS011;60181;53.258;6.932;2022-07-22T06:04:08;4.50;;;2.10;;
65658;SDS011;60181;53.258;6.932;2022-07-22T06:08:36;4.50;;;2.10;;
65658;SDS011;60181;53.258;6.932;2022-07-22T06:13:04;4.70;;;2.00;;
65658;SDS011;60181;53.258;6.932;2022-07-22T06:17:32;4.70;;;2.00;;
65658;SDS011;60181;53.258;6.932;2022-07-22T06:22:00;5.00;;;2.10;;
65658;SDS011;60181;53.258;6.932;2022-07-22T06:26:28;5.00;;;2.10;;
65658;SDS011;60181;53.258;6.932;2022-07-22T06:30:56;4.10;;;2.30;;
65658;SDS011;60181;53.258;6.932;2022-07-22T06:35:24;4.10;;;2.30;;
65658;SDS011;60181;53.258;6.932;2022-07-22T06:39:52;3.60;;;2.20;;
65658;SDS011;60181;53.258;6.932;2022-07-22T06:44:20;3.60;;;2.20;;
65658;SDS011;60181;53.258;6.932;2022-07-22T06:48:48;5.80;;;2.70;;
65658;SDS011;60181;53.258;6.932;2022-07-22T06:53:16;5.80;;;2.70;;
65658;SDS011;60181;53.258;6.932;2022-07-22T06:57:44;5.80;;;2.70;;
65658;SDS011;60181;53.258;6.932;2022-07-22T07:02:12;5.50;;;2.60;;
65658;SDS011;60181;53.258;6.932;2022-07-22T07:06:40;5.50;;;2.60;;
65658;SDS011;60181;53.258;6.932;2022-07-22T07:11:08;4.80;;;3.00;;
65658;SDS011;60181;53.258;6.932;2022-07-22T07:15:36;4.80;;;3.00;;
65658;SDS011;60181;53.258;6.932;2022-07-22T07:20:05;8.20;;;4.20;;
65658;SDS011;60181;53.258;6.932;2022-07-22T07:24:32;8.20;;;4.20;;
65658;SDS011;60181;53.258;6.932;2022-07-22T07:29:00;7.10;;;3.40;;
65658;SDS011;60181;53.258;6.932;2022-07-22T07:33:28;7.10;;;3.40;;
65658;SDS011;60181;53.258;6.932;2022-07-22T07:37:56;7.10;;;3.40;;
65658;SDS011;60181;53.258;6.932;2022-07-22T07:42:24;6.20;;;3.90;;
65658;SDS011;60181;53.258;6.932;2022-07-22T07:46:52;6.20;;;3.90;;
65658;SDS011;60181;53.258;6.932;2022-07-22T07:51:20;6.90;;;3.50;;
65658;SDS011;60181;53.258;6.932;2022-07-22T07:55:48;6.90;;;3.50;;
65658;SDS011;60181;53.258;6.932;2022-07-22T08:00:17;6.90;;;3.70;;
65658;SDS011;60181;53.258;6.932;2022-07-22T08:04:44;6.90;;;3.70;;
65658;SDS011;60181;53.258;6.932;2022-07-22T08:09:12;6.80;;;3.60;;
65658;SDS011;60181;53.258;6.932;2022-07-22T08:13:40;6.80;;;3.60;;
65658;SDS011;60181;53.258;6.932;2022-07-22T08:18:08;6.80;;;3.60;;
65658;SDS011;60181;53.258;6.932;2022-07-22T08:22:36;7.30;;;3.80;;
65658;SDS011;60181;53.258;6.932;2022-07-22T08:27:04;7.30;;;3.80;;
65658;SDS011;60181;53.258;6.932;2022-07-22T08:31:32;6.90;;;4.00;;
65658;SDS011;60181;53.258;6.932;2022-07-22T08:36:00;6.90;;;4.00;;
65658;SDS011;60181;53.258;6.932;2022-07-22T08:40:28;7.50;;;4.00;;
65658;SDS011;60181;53.258;6.932;2022-07-22T08:44:56;7.50;;;4.00;;
65658;SDS011;60181;53.258;6.932;2022-07-22T08:49:24;7.50;;;4.10;;
65658;SDS011;60181;53.258;6.932;2022-07-22T08:53:52;7.50;;;4.10;;
65658;SDS011;60181;53.258;6.932;2022-07-22T08:58:20;7.50;;;4.10;;
65658;SDS011;60181;53.258;6.932;2022-07-22T09:02:48;8.00;;;4.10;;
65658;SDS011;60181;53.258;6.932;2022-07-22T09:07:35;8.00;;;4.10;;
65658;SDS011;60181;53.258;6.932;2022-07-22T09:11:44;8.00;;;4.10;;
65658;SDS011;60181;53.258;6.932;2022-07-22T09:16:12;8.00;;;4.10;;
65658;SDS011;60181;53.258;6.932;2022-07-22T09:20:40;6.50;;;3.80;;
65658;SDS011;60181;53.258;6.932;2022-07-22T09:29:36;6.60;;;3.70;;
65658;SDS011;60181;53.258;6.932;2022-07-22T09:34:04;6.60;;;3.70;;
65658;SDS011;60181;53.258;6.932;2022-07-22T09:38:32;6.60;;;3.70;;
65658;SDS011;60181;53.258;6.932;2022-07-22T09:43:02;6.30;;;3.90;;
65658;SDS011;60181;53.258;6.932;2022-07-22T09:47:28;6.30;;;3.90;;
65658;SDS011;60181;53.258;6.932;2022-07-22T09:51:56;6.90;;;3.80;;
65658;SDS011;60181;53.258;6.932;2022-07-22T09:56:24;6.90;;;3.80;;
65658;SDS011;60181;53.258;6.932;2022-07-22T10:00:53;6.40;;;3.90;;
65658;SDS011;60181;53.258;6.932;2022-07-22T10:05:21;6.40;;;3.90;;
65658;SDS011;60181;53.258;6.932;2022-07-22T10:09:48;6.40;;;3.70;;
65658;SDS011;60181;53.258;6.932;2022-07-22T10:14:17;6.40;;;3.70;;
65658;SDS011;60181;53.258;6.932;2022-07-22T10:18:44;6.30;;;3.60;;
65658;SDS011;60181;53.258;6.932;2022-07-22T10:23:12;6.30;;;3.60;;
65658;SDS011;60181;53.258;6.932;2022-07-22T10:27:47;6.30;;;3.60;;
65658;SDS011;60181;53.258;6.932;2022-07-22T10:36:37;6.40;;;3.60;;
65658;SDS011;60181;53.258;6.932;2022-07-22T10:41:05;7.00;;;3.40;;
65658;SDS011;60181;53.258;6.932;2022-07-22T10:45:33;7.00;;;3.40;;
65658;SDS011;60181;53.258;6.932;2022-07-22T10:54:28;5.10;;;3.20;;
65658;SDS011;60181;53.258;6.932;2022-07-22T10:58:57;6.40;;;3.30;;
65658;SDS011;60181;53.258;6.932;2022-07-22T11:03:24;6.40;;;3.30;;
65658;SDS011;60181;53.258;6.932;2022-07-22T11:07:52;6.40;;;3.30;;
65658;SDS011;60181;53.258;6.932;2022-07-22T11:12:20;6.30;;;3.50;;
65658;SDS011;60181;53.258;6.932;2022-07-22T11:16:49;6.30;;;3.50;;
65658;SDS011;60181;53.258;6.932;2022-07-22T11:21:17;5.50;;;3.40;;
65658;SDS011;60181;53.258;6.932;2022-07-22T11:25:44;5.50;;;3.40;;
65658;SDS011;60181;53.258;6.932;2022-07-22T11:30:12;4.40;;;3.00;;
65658;SDS011;60181;53.258;6.932;2022-07-22T11:34:40;4.40;;;3.00;;
65658;SDS011;60181;53.258;6.932;2022-07-22T11:39:08;6.00;;;3.00;;
65658;SDS011;60181;53.258;6.932;2022-07-22T11:43:43;6.00;;;3.00;;
65658;SDS011;60181;53.258;6.932;2022-07-22T11:48:10;6.00;;;3.00;;
65658;SDS011;60181;53.258;6.932;2022-07-22T11:52:32;5.20;;;2.70;;
65658;SDS011;60181;53.258;6.932;2022-07-22T11:57:01;5.20;;;2.70;;
65658;SDS011;60181;53.258;6.932;2022-07-22T12:01:28;5.90;;;2.90;;
65658;SDS011;60181;53.258;6.932;2022-07-22T12:05:56;5.90;;;2.90;;
65658;SDS011;60181;53.258;6.932;2022-07-22T12:10:24;4.60;;;2.90;;
65658;SDS011;60181;53.258;6.932;2022-07-22T12:14:52;4.60;;;2.90;;
65658;SDS011;60181;53.258;6.932;2022-07-22T12:19:20;4.30;;;2.70;;
65658;SDS011;60181;53.258;6.932;2022-07-22T12:23:51;4.30;;;2.70;;
65658;SDS011;60181;53.258;6.932;2022-07-22T12:28:16;4.30;;;2.70;;
65658;SDS011;60181;53.258;6.932;2022-07-22T12:32:47;5.60;;;2.60;;
65658;SDS011;60181;53.258;6.932;2022-07-22T12:37:13;5.60;;;2.60;;
65658;SDS011;60181;53.258;6.932;2022-07-22T12:41:47;4.30;;;2.50;;
65658;SDS011;60181;53.258;6.932;2022-07-22T12:46:08;4.30;;;2.50;;
65658;SDS011;60181;53.258;6.932;2022-07-22T12:50:40;3.40;;;2.50;;
65658;SDS011;60181;53.258;6.932;2022-07-22T12:55:04;3.40;;;2.50;;
65658;SDS011;60181;53.258;6.932;2022-07-22T12:59:32;4.90;;;2.90;;
65658;SDS011;60181;53.258;6.932;2022-07-22T13:04:00;4.90;;;2.90;;
65658;SDS011;60181;53.258;6.932;2022-07-22T13:08:28;4.90;;;2.90;;
65658;SDS011;60181;53.258;6.932;2022-07-22T13:12:56;4.20;;;2.90;;
65658;SDS011;60181;53.258;6.932;2022-07-22T13:17:24;4.20;;;2.90;;
65658;SDS011;60181;53.258;6.932;2022-07-22T13:21:52;4.60;;;2.80;;
65658;SDS011;60181;53.258;6.932;2022-07-22T13:26:20;4.60;;;2.80;;
65658;SDS011;60181;53.258;6.932;2022-07-22T13:30:48;3.70;;;2.60;;
65658;SDS011;60181;53.258;6.932;2022-07-22T13:35:16;3.70;;;2.60;;
65658;SDS011;60181;53.258;6.932;2022-07-22T13:39:44;4.90;;;3.20;;
65658;SDS011;60181;53.258;6.932;2022-07-22T13:44:12;4.90;;;3.20;;
65658;SDS011;60181;53.258;6.932;2022-07-22T13:48:40;4.90;;;3.20;;
65658;SDS011;60181;53.258;6.932;2022-07-22T13:53:08;6.20;;;3.20;;
65658;SDS011;60181;53.258;6.932;2022-07-22T13:57:36;6.20;;;3.20;;
65658;SDS011;60181;53.258;6.932;2022-07-22T14:02:04;4.30;;;2.90;;
65658;SDS011;60181;53.258;6.932;2022-07-22T14:06:32;4.30;;;2.90;;
65658;SDS011;60181;53.258;6.932;2022-07-22T14:11:00;5.00;;;3.00;;
65658;SDS011;60181;53.258;6.932;2022-07-22T14:15:28;5.00;;;3.00;;
65658;SDS011;60181;53.258;6.932;2022-07-22T14:19:56;5.70;;;3.20;;
65658;SDS011;60181;53.258;6.932;2022-07-22T14:24:24;5.70;;;3.20;;
65658;SDS011;60181;53.258;6.932;2022-07-22T14:28:52;4.60;;;3.00;;
65658;SDS011;60181;53.258;6.932;2022-07-22T14:33:20;4.60;;;3.00;;
65658;SDS011;60181;53.258;6.932;2022-07-22T14:37:48;4.60;;;3.00;;
65658;SDS011;60181;53.258;6.932;2022-07-22T14:42:16;5.40;;;3.10;;
65658;SDS011;60181;53.258;6.932;2022-07-22T14:46:44;5.40;;;3.10;;
65658;SDS011;60181;53.258;6.932;2022-07-22T14:51:12;5.50;;;3.40;;
65658;SDS011;60181;53.258;6.932;2022-07-22T14:55:40;5.50;;;3.40;;
65658;SDS011;60181;53.258;6.932;2022-07-22T15:00:08;5.50;;;3.20;;
65658;SDS011;60181;53.258;6.932;2022-07-22T15:04:36;5.50;;;3.20;;
65658;SDS011;60181;53.258;6.932;2022-07-22T15:09:04;5.90;;;3.30;;
65658;SDS011;60181;53.258;6.932;2022-07-22T15:13:31;5.90;;;3.30;;
65658;SDS011;60181;53.258;6.932;2022-07-22T15:17:59;5.90;;;3.30;;
65658;SDS011;60181;53.258;6.932;2022-07-22T15:22:27;5.10;;;3.30;;
65658;SDS011;60181;53.258;6.932;2022-07-22T15:26:55;5.10;;;3.30;;
65658;SDS011;60181;53.258;6.932;2022-07-22T15:31:25;5.10;;;3.40;;
65658;SDS011;60181;53.258;6.932;2022-07-22T15:35:51;5.10;;;3.40;;
65658;SDS011;60181;53.258;6.932;2022-07-22T15:40:19;5.50;;;3.80;;
65658;SDS011;60181;53.258;6.932;2022-07-22T15:44:47;5.50;;;3.80;;
65658;SDS011;60181;53.258;6.932;2022-07-22T15:49:16;6.10;;;3.70;;
65658;SDS011;60181;53.258;6.932;2022-07-22T15:53:43;6.10;;;3.70;;
65658;SDS011;60181;53.258;6.932;2022-07-22T15:58:11;6.10;;;3.70;;
65658;SDS011;60181;53.258;6.932;2022-07-22T16:02:39;7.20;;;4.60;;
65658;SDS011;60181;53.258;6.932;2022-07-22T16:07:07;7.20;;;4.60;;
65658;SDS011;60181;53.258;6.932;2022-07-22T16:11:35;6.00;;;4.20;;
65658;SDS011;60181;53.258;6.932;2022-07-22T16:16:04;6.00;;;4.20;;
65658;SDS011;60181;53.258;6.932;2022-07-22T16:20:31;7.30;;;4.60;;
65658;SDS011;60181;53.258;6.932;2022-07-22T16:24:59;7.30;;;4.60;;
65658;SDS011;60181;53.258;6.932;2022-07-22T16:29:27;7.90;;;4.90;;
65658;SDS011;60181;53.258;6.932;2022-07-22T16:33:55;7.90;;;4.90;;
65658;SDS011;60181;53.258;6.932;2022-07-22T16:38:23;7.90;;;4.90;;
65658;SDS011;60181;53.258;6.932;2022-07-22T16:42:51;7.10;;;4.90;;
65658;SDS011;60181;53.258;6.932;2022-07-22T16:47:19;7.10;;;4.90;;
65658;SDS011;60181;53.258;6.932;2022-07-22T16:51:47;7.60;;;4.80;;
65658;SDS011;60181;53.258;6.932;2022-07-22T16:56:16;7.60;;;4.80;;
65658;SDS011;60181;53.258;6.932;2022-07-22T17:00:43;7.10;;;4.70;;
65658;SDS011;60181;53.258;6.932;2022-07-22T17:05:11;7.10;;;4.70;;
65658;SDS011;60181;53.258;6.932;2022-07-22T17:09:39;6.70;;;4.50;;
65658;SDS011;60181;53.258;6.932;2022-07-22T17:14:07;6.70;;;4.50;;
65658;SDS011;60181;53.258;6.932;2022-07-22T17:18:35;6.70;;;4.50;;
65658;SDS011;60181;53.258;6.932;2022-07-22T17:23:03;7.10;;;4.60;;
65658;SDS011;60181;53.258;6.932;2022-07-22T17:27:31;7.10;;;4.60;;
65658;SDS011;60181;53.258;6.932;2022-07-22T17:31:59;6.30;;;4.30;;
65658;SDS011;60181;53.258;6.932;2022-07-22T17:36:27;6.30;;;4.30;;
65658;SDS011;60181;53.258;6.932;2022-07-22T17:40:55;7.90;;;4.60;;
65658;SDS011;60181;53.258;6.932;2022-07-22T17:45:23;7.90;;;4.60;;
65658;SDS011;60181;53.258;6.932;2022-07-22T17:49:51;6.20;;;4.10;;
65658;SDS011;60181;53.258;6.932;2022-07-22T17:54:20;6.20;;;4.10;;
65658;SDS011;60181;53.258;6.932;2022-07-22T17:58:47;6.50;;;3.80;;
65658;SDS011;60181;53.258;6.932;2022-07-22T18:03:15;6.50;;;3.80;;
65658;SDS011;60181;53.258;6.932;2022-07-22T18:07:43;6.50;;;3.80;;
65658;SDS011;60181;53.258;6.932;2022-07-22T18:12:11;6.30;;;3.90;;
65658;SDS011;60181;53.258;6.932;2022-07-22T18:16:39;6.30;;;3.90;;
65658;SDS011;60181;53.258;6.932;2022-07-22T18:21:07;6.60;;;4.00;;
65658;SDS011;60181;53.258;6.932;2022-07-22T18:25:36;6.60;;;4.00;;
65658;SDS011;60181;53.258;6.932;2022-07-22T18:30:04;6.60;;;3.60;;
65658;SDS011;60181;53.258;6.932;2022-07-22T18:34:31;6.60;;;3.60;;
65658;SDS011;60181;53.258;6.932;2022-07-22T18:38:59;6.30;;;3.70;;
65658;SDS011;60181;53.258;6.932;2022-07-22T18:43:27;6.30;;;3.70;;
65658;SDS011;60181;53.258;6.932;2022-07-22T18:47:55;6.30;;;3.70;;
65658;SDS011;60181;53.258;6.932;2022-07-22T18:52:23;6.80;;;3.70;;
65658;SDS011;60181;53.258;6.932;2022-07-22T18:56:51;6.80;;;3.70;;
65658;SDS011;60181;53.258;6.932;2022-07-22T19:01:19;5.60;;;3.60;;
65658;SDS011;60181;53.258;6.932;2022-07-22T19:05:47;5.60;;;3.60;;
65658;SDS011;60181;53.258;6.932;2022-07-22T19:10:15;6.10;;;3.50;;
65658;SDS011;60181;53.258;6.932;2022-07-22T19:14:43;6.10;;;3.50;;
65658;SDS011;60181;53.258;6.932;2022-07-22T19:19:11;6.10;;;3.50;;
65658;SDS011;60181;53.258;6.932;2022-07-22T19:23:39;6.10;;;3.50;;
65658;SDS011;60181;53.258;6.932;2022-07-22T19:28:07;6.10;;;3.50;;
65658;SDS011;60181;53.258;6.932;2022-07-22T19:32:35;5.60;;;3.50;;
65658;SDS011;60181;53.258;6.932;2022-07-22T19:37:03;5.60;;;3.50;;
65658;SDS011;60181;53.258;6.932;2022-07-22T19:41:31;6.00;;;3.80;;
65658;SDS011;60181;53.258;6.932;2022-07-22T19:45:59;6.00;;;3.80;;
65658;SDS011;60181;53.258;6.932;2022-07-22T19:50:27;6.30;;;3.50;;
65658;SDS011;60181;53.258;6.932;2022-07-22T19:54:55;6.30;;;3.50;;
65658;SDS011;60181;53.258;6.932;2022-07-22T19:59:23;6.40;;;3.50;;
65658;SDS011;60181;53.258;6.932;2022-07-22T20:03:51;6.40;;;3.50;;
65658;SDS011;60181;53.258;6.932;2022-07-22T20:08:19;6.40;;;3.50;;
65658;SDS011;60181;53.258;6.932;2022-07-22T20:12:47;5.30;;;3.60;;
65658;SDS011;60181;53.258;6.932;2022-07-22T20:17:15;5.30;;;3.60;;
65658;SDS011;60181;53.258;6.932;2022-07-22T20:21:43;7.50;;;3.90;;
65658;SDS011;60181;53.258;6.932;2022-07-22T20:26:11;7.50;;;3.90;;
65658;SDS011;60181;53.258;6.932;2022-07-22T20:30:39;6.10;;;3.80;;
65658;SDS011;60181;53.258;6.932;2022-07-22T20:35:07;6.10;;;3.80;;
65658;SDS011;60181;53.258;6.932;2022-07-22T20:39:35;5.70;;;3.90;;
65658;SDS011;60181;53.258;6.932;2022-07-22T20:44:03;5.70;;;3.90;;
65658;SDS011;60181;53.258;6.932;2022-07-22T20:48:31;5.70;;;3.90;;
65658;SDS011;60181;53.258;6.932;2022-07-22T20:52:59;5.90;;;4.00;;
65658;SDS011;60181;53.258;6.932;2022-07-22T20:57:27;5.90;;;4.00;;
65658;SDS011;60181;53.258;6.932;2022-07-22T21:01:55;6.00;;;4.00;;
65658;SDS011;60181;53.258;6.932;2022-07-22T21:06:23;6.00;;;4.00;;
65658;SDS011;60181;53.258;6.932;2022-07-22T21:10:51;7.00;;;4.30;;
65658;SDS011;60181;53.258;6.932;2022-07-22T21:15:19;7.00;;;4.30;;
65658;SDS011;60181;53.258;6.932;2022-07-22T21:19:47;6.90;;;4.50;;
65658;SDS011;60181;53.258;6.932;2022-07-22T21:24:15;6.90;;;4.50;;
65658;SDS011;60181;53.258;6.932;2022-07-22T21:28:43;7.40;;;4.70;;
65658;SDS011;60181;53.258;6.932;2022-07-22T21:33:11;7.40;;;4.70;;
65658;SDS011;60181;53.258;6.932;2022-07-22T21:37:39;7.40;;;4.70;;
65658;SDS011;60181;53.258;6.932;2022-07-22T21:42:07;7.50;;;4.60;;
65658;SDS011;60181;53.258;6.932;2022-07-22T21:46:35;7.50;;;4.60;;
65658;SDS011;60181;53.258;6.932;2022-07-22T21:51:03;8.40;;;4.90;;
65658;SDS011;60181;53.258;6.932;2022-07-22T21:55:31;8.40;;;4.90;;
65658;SDS011;60181;53.258;6.932;2022-07-22T21:59:59;7.90;;;4.90;;
65658;SDS011;60181;53.258;6.932;2022-07-22T22:04:27;7.90;;;4.90;;
65658;SDS011;60181;53.258;6.932;2022-07-22T22:08:55;8.60;;;5.40;;
65658;SDS011;60181;53.258;6.932;2022-07-22T22:13:23;8.60;;;5.40;;
65658;SDS011;60181;53.258;6.932;2022-07-22T22:17:51;8.60;;;5.40;;
65658;SDS011;60181;53.258;6.932;2022-07-22T22:22:19;9.50;;;5.70;;
65658;SDS011;60181;53.258;6.932;2022-07-22T22:26:47;9.50;;;5.70;;
65658;SDS011;60181;53.258;6.932;2022-07-22T22:31:15;9.00;;;5.60;;
65658;SDS011;60181;53.258;6.932;2022-07-22T22:35:43;9.00;;;5.60;;
65658;SDS011;60181;53.258;6.932;2022-07-22T22:40:11;8.90;;;5.60;;
65658;SDS011;60181;53.258;6.932;2022-07-22T22:44:39;8.90;;;5.60;;
65658;SDS011;60181;53.258;6.932;2022-07-22T22:49:07;9.60;;;6.10;;
65658;SDS011;60181;53.258;6.932;2022-07-22T22:53:35;9.60;;;6.10;;
65658;SDS011;60181;53.258;6.932;2022-07-22T22:58:03;9.60;;;6.10;;
65658;SDS011;60181;53.258;6.932;2022-07-22T23:02:31;10.40;;;5.90;;
65658;SDS011;60181;53.258;6.932;2022-07-22T23:06:59;10.40;;;5.90;;
65658;SDS011;60181;53.258;6.932;2022-07-22T23:11:27;9.20;;;5.90;;
65658;SDS011;60181;53.258;6.932;2022-07-22T23:15:55;9.20;;;5.90;;
65658;SDS011;60181;53.258;6.932;2022-07-22T23:20:23;9.30;;;6.10;;
65658;SDS011;60181;53.258;6.932;2022-07-22T23:24:51;9.30;;;6.10;;
65658;SDS011;60181;53.258;6.932;2022-07-22T23:29:19;9.10;;;6.10;;
65658;SDS011;60181;53.258;6.932;2022-07-22T23:33:47;9.10;;;6.10;;
65658;SDS011;60181;53.258;6.932;2022-07-22T23:38:15;9.10;;;6.10;;
65658;SDS011;60181;53.258;6.932;2022-07-22T23:42:43;8.90;;;6.00;;
65658;SDS011;60181;53.258;6.932;2022-07-22T23:47:11;8.90;;;6.00;;
65658;SDS011;60181;53.258;6.932;2022-07-22T23:51:39;9.00;;;5.90;;
65658;SDS011;60181;53.258;6.932;2022-07-22T23:56:07;9.00;;;5.90;;
